Time;durP1;ratioP1;P1;durP2;ratioP2;P2;SDS_P1;SDS_P2;PMS_P1;PMS_P2;Temp;Humidity;BMP_temperature;BMP_pressure;BME280_temperature;BME280_humidity;BME280_pressure;Samples;Min_cycle;Max_cycle;Signal;HPM_P1;HPM_P2
2023/05/18 00:02:02;;;;;;;;;;;;;;;16.97;48.36;100283.53;5063079;28;1134;-50
2023/05/18 00:04:33;;;;;;;;;;;;;;;16.73;47.50;100270.50;5076250;28;1085;-49
2023/05/18 00:07:02;;;;;;;;;;;;;;;16.56;47.11;100276.41;5076195;28;1137;-50
2023/05/18 00:09:27;;;;;;;;;;;;;;;16.55;46.44;100268.44;5067595;28;985;-53
2023/05/18 00:11:53;;;;;;;;;;;;;;;17.33;47.36;100261.19;5076146;28;1086;-53
2023/05/18 00:14:18;;;;;;;;;;;;;;;16.75;48.05;100262.78;5076665;28;1042;-52
2023/05/18 00:16:44;;;;;;;;;;;;;;;16.51;47.44;100245.41;5076642;28;1122;-53
2023/05/18 00:19:13;;;;;;;;;;;;;;;16.47;46.65;100238.88;5075923;28;1905;-53
2023/05/18 00:21:39;;;;;;;;;;;;;;;16.40;46.16;100233.69;5075501;28;890;-53
2023/05/18 00:24:05;;;;;;;;;;;;;;;17.46;47.14;100234.94;5076343;28;1158;-50
2023/05/18 00:26:30;;;;;;;;;;;;;;;16.67;47.98;100238.69;5075988;28;1067;-53
2023/05/18 00:28:56;;;;;;;;;;;;;;;16.74;48.12;100252.09;5076074;28;1098;-53
2023/05/18 00:31:22;;;;;;;;;;;;;;;17.38;48.44;100244.63;5076013;28;1142;-48
2023/05/18 00:33:47;;;;;;;;;;;;;;;16.85;48.00;100237.16;5050796;28;1286;-51
2023/05/18 00:36:12;;;;;;;;;;;;;;;16.66;47.49;100248.06;5075872;28;1134;-52
2023/05/18 00:38:38;;;;;;;;;;;;;;;16.46;46.99;100249.00;5075848;28;1974;-48
2023/05/18 00:41:03;;;;;;;;;;;;;;;17.19;47.94;100244.56;5058056;28;1777;-49
2023/05/18 00:43:29;;;;;;;;;;;;;;;17.02;48.43;100252.44;5058509;28;1118;-47
2023/05/18 00:45:54;;;;;;;;;;;;;;;16.78;47.78;100250.41;5088563;28;1074;-49
2023/05/18 00:48:20;;;;;;;;;;;;;;;16.55;47.08;100252.81;5057952;28;1282;-54
2023/05/18 00:50:45;;;;;;;;;;;;;;;16.58;46.32;100254.97;5057358;28;1078;-54
2023/05/18 00:53:11;;;;;;;;;;;;;;;17.09;47.96;100250.16;5057856;28;1122;-54
2023/05/18 00:55:37;;;;;;;;;;;;;;;16.97;48.53;100253.31;5057822;28;1062;-50
2023/05/18 00:58:04;;;;;;;;;;;;;;;16.58;48.08;100265.13;5075654;28;1921;-50
2023/05/18 01:00:29;;;;;;;;;;;;;;;16.51;47.30;100272.84;5075914;28;1026;-52
2023/05/18 01:02:55;;;;;;;;;;;;;;;16.45;46.46;100276.75;5045983;28;1124;-53
2023/05/18 01:05:21;;;;;;;;;;;;;;;17.70;48.15;100270.66;5082250;28;1176;-53
2023/05/18 01:07:47;;;;;;;;;;;;;;;17.07;48.81;100253.19;5065141;28;1110;-54
2023/05/18 01:10:13;;;;;;;;;;;;;;;16.72;48.41;100263.38;5064909;28;1119;-52
2023/05/18 01:12:45;;;;;;;;;;;;;;;16.65;47.16;100257.38;5082137;28;1019;-53
2023/05/18 01:15:14;;;;;;;;;;;;;;;16.50;46.79;100254.75;5082597;28;1120;-51
2023/05/18 01:17:59;;;;;;;;;;;;;;;16.76;47.01;100245.22;5082254;28;1906;-52
2023/05/18 01:20:27;;;;;;;;;;;;;;;17.50;48.85;100249.75;5069453;28;1110;-53
2023/05/18 01:22:56;;;;;;;;;;;;;;;16.86;48.58;100246.25;5066694;28;998;-54
2023/05/18 01:25:22;;;;;;;;;;;;;;;16.67;47.72;100244.19;5064314;28;1113;-52
2023/05/18 01:27:48;;;;;;;;;;;;;;;17.15;48.51;100248.19;5082103;28;1221;-51
2023/05/18 01:30:14;;;;;;;;;;;;;;;16.98;48.40;100243.13;5064715;28;1145;-53
2023/05/18 01:32:41;;;;;;;;;;;;;;;16.68;47.92;100251.31;5066123;28;1138;-53
2023/05/18 01:35:07;;;;;;;;;;;;;;;16.46;47.47;100248.22;5064253;28;1095;-52
2023/05/18 01:37:33;;;;;;;;;;;;;;;16.39;46.51;100254.81;5082199;28;1905;-52
2023/05/18 01:39:58;;;;;;;;;;;;;;;16.44;46.01;100251.25;5082087;28;1108;-52
2023/05/18 01:42:25;;;;;;;;;;;;;;;17.38;47.40;100257.56;5081551;28;1074;-52
2023/05/18 01:44:52;;;;;;;;;;;;;;;16.74;47.76;100255.66;5071922;28;1168;-46
2023/05/18 01:47:18;;;;;;;;;;;;;;;16.46;47.21;100260.00;5065280;28;1146;-49
2023/05/18 01:49:52;;;;;;;;;;;;;;;17.22;48.10;100254.16;5081929;28;1055;-50
2023/05/18 01:52:19;;;;;;;;;;;;;;;16.72;47.97;100257.06;5063790;28;1106;-53
2023/05/18 01:54:44;;;;;;;;;;;;;;;16.51;47.10;100259.97;5064034;28;1292;-53
2023/05/18 01:57:10;;;;;;;;;;;;;;;17.43;47.45;100263.84;5085277;28;1962;-52
2023/05/18 01:59:36;;;;;;;;;;;;;;;16.76;48.19;100261.69;5064159;28;1138;-54
2023/05/18 02:02:01;;;;;;;;;;;;;;;16.62;47.29;100268.94;5082042;28;1282;-53
2023/05/18 02:04:27;;;;;;;;;;;;;;;16.37;46.94;100272.69;5063334;28;1231;-48
2023/05/18 02:06:54;;;;;;;;;;;;;;;16.73;47.35;100269.66;5082051;28;1111;-53
2023/05/18 02:09:20;;;;;;;;;;;;;;;17.10;48.08;100277.34;5073892;28;1159;-49
2023/05/18 02:11:46;;;;;;;;;;;;;;;16.73;47.74;100276.00;5063925;28;1201;-52
2023/05/18 02:14:12;;;;;;;;;;;;;;;16.53;47.40;100273.41;5060677;28;1122;-50
2023/05/18 02:16:38;;;;;;;;;;;;;;;17.20;47.85;100279.16;5067993;28;1132;-50
2023/05/18 02:19:03;;;;;;;;;;;;;;;16.89;48.60;100270.41;5071323;28;1906;-51
2023/05/18 02:21:29;;;;;;;;;;;;;;;16.62;47.87;100279.09;5063919;28;826;-51
2023/05/18 02:23:55;;;;;;;;;;;;;;;16.57;46.93;100283.50;5078296;28;1124;-51
2023/05/18 02:26:21;;;;;;;;;;;;;;;16.84;46.89;100287.69;5060637;28;1407;-52
2023/05/18 02:28:51;;;;;;;;;;;;;;;17.12;48.04;100285.28;5078816;28;1081;-53
2023/05/18 02:31:16;;;;;;;;;;;;;;;16.76;47.67;100291.88;5078675;28;1122;-52
2023/05/18 02:33:42;;;;;;;;;;;;;;;16.68;46.80;100289.75;5088772;28;1042;-50
2023/05/18 02:36:11;;;;;;;;;;;;;;;16.41;46.68;100293.78;5078185;28;1154;-50
2023/05/18 02:38:37;;;;;;;;;;;;;;;17.42;47.75;100292.41;5078411;28;1906;-53
2023/05/18 02:41:03;;;;;;;;;;;;;;;17.01;48.21;100306.56;5060175;28;1187;-53
2023/05/18 02:43:29;;;;;;;;;;;;;;;16.72;47.53;100310.03;5060073;28;1150;-51
2023/05/18 02:45:55;;;;;;;;;;;;;;;16.62;46.93;100307.38;5074701;28;1150;-53
2023/05/18 02:48:20;;;;;;;;;;;;;;;16.47;46.32;100305.56;5054672;28;1200;-55
2023/05/18 02:50:49;;;;;;;;;;;;;;;16.29;46.08;100309.75;5060149;28;1203;-54
2023/05/18 02:53:15;;;;;;;;;;;;;;;17.40;47.36;100315.81;5073425;28;1444;-50
2023/05/18 02:55:42;;;;;;;;;;;;;;;16.83;47.99;100312.69;5077583;28;1019;-54
2023/05/18 02:58:14;;;;;;;;;;;;;;;16.53;47.48;100315.38;5070263;28;1897;-52
2023/05/18 03:00:55;;;;;;;;;;;;;;;16.68;47.38;100333.69;5051179;28;1109;-53
2023/05/18 03:03:22;;;;;;;;;;;;;;;17.64;48.13;100331.50;5059465;28;1439;-52
2023/05/18 03:05:51;;;;;;;;;;;;;;;16.77;48.87;100337.47;5059607;28;1171;-53
2023/05/18 03:08:18;;;;;;;;;;;;;;;16.80;47.24;100327.00;5078092;28;1114;-50
2023/05/18 03:10:44;;;;;;;;;;;;;;;17.52;48.20;100340.97;5062860;28;1282;-51
2023/05/18 03:13:10;;;;;;;;;;;;;;;16.91;48.45;100339.59;5070508;28;1100;-52
2023/05/18 03:15:36;;;;;;;;;;;;;;;16.63;47.61;100346.63;5077261;28;1188;-53
2023/05/18 03:18:02;;;;;;;;;;;;;;;16.53;46.82;100348.31;5059352;28;1973;-50
2023/05/18 03:20:30;;;;;;;;;;;;;;;16.49;46.52;100347.25;5052412;28;1148;-54
2023/05/18 03:22:56;;;;;;;;;;;;;;;17.13;48.00;100350.13;5066647;28;1065;-52
2023/05/18 03:25:24;;;;;;;;;;;;;;;16.68;47.83;100350.16;5039185;28;1309;-52
2023/05/18 03:27:51;;;;;;;;;;;;;;;16.89;47.71;100353.59;5039474;28;1203;-52
2023/05/18 03:30:18;;;;;;;;;;;;;;;17.18;48.14;100352.00;5048382;28;1123;-52
2023/05/18 03:32:46;;;;;;;;;;;;;;;16.91;47.53;100343.16;5058823;28;1194;-51
2023/05/18 03:35:12;;;;;;;;;;;;;;;16.79;47.54;100344.56;5061808;28;1188;-53
2023/05/18 03:37:37;;;;;;;;;;;;;;;17.37;48.35;100349.38;5057213;28;1957;-55
2023/05/18 03:40:10;;;;;;;;;;;;;;;16.88;48.26;100351.13;5048034;28;1187;-55
2023/05/18 03:42:37;;;;;;;;;;;;;;;17.82;48.25;100350.00;5059259;28;1122;-55
2023/05/18 03:45:03;;;;;;;;;;;;;;;17.25;48.50;100347.00;5060795;28;1250;-54
2023/05/18 03:47:29;;;;;;;;;;;;;;;16.91;47.72;100347.81;5061972;28;1286;-56
2023/05/18 03:49:54;;;;;;;;;;;;;;;16.81;47.04;100339.63;5049329;28;1066;-53
2023/05/18 03:52:22;;;;;;;;;;;;;;;16.60;46.70;100332.34;5059001;28;1123;-54
2023/05/18 03:54:48;;;;;;;;;;;;;;;16.63;46.03;100343.88;5058928;28;1147;-54
2023/05/18 03:57:14;;;;;;;;;;;;;;;16.55;46.29;100339.78;5078869;28;1996;-56
2023/05/18 03:59:40;;;;;;;;;;;;;;;16.99;47.44;100332.66;5069813;28;1174;-56
2023/05/18 04:02:06;;;;;;;;;;;;;;;16.68;47.05;100333.69;5076762;28;1062;-53
2023/05/18 04:04:32;;;;;;;;;;;;;;;16.65;47.23;100338.91;5065012;28;1397;-56
2023/05/18 04:07:00;;;;;;;;;;;;;;;16.50;46.77;100342.59;5057857;28;1145;-56
2023/05/18 04:09:26;;;;;;;;;;;;;;;17.80;48.00;100343.97;5080658;28;1080;-56
2023/05/18 04:11:52;;;;;;;;;;;;;;;17.07;48.84;100345.78;5053969;28;1269;-55
2023/05/18 04:14:19;;;;;;;;;;;;;;;16.82;47.92;100344.84;5075903;28;1136;-57
2023/05/18 04:16:45;;;;;;;;;;;;;;;16.62;47.28;100348.56;5077186;28;1101;-56
2023/05/18 04:19:12;;;;;;;;;;;;;;;16.57;46.48;100345.84;5044840;28;1906;-53
2023/05/18 04:21:42;;;;;;;;;;;;;;;17.71;47.84;100343.81;5069529;28;1112;-54
2023/05/18 04:24:08;;;;;;;;;;;;;;;16.80;48.73;100357.22;5063329;28;1323;-56
2023/05/18 04:26:38;;;;;;;;;;;;;;;16.73;47.60;100352.88;5056367;28;1284;-56
2023/05/18 04:29:03;;;;;;;;;;;;;;;16.43;47.16;100351.94;5058411;28;1146;-56
2023/05/18 04:31:29;;;;;;;;;;;;;;;16.71;46.94;100351.50;5040039;28;1107;-56
2023/05/18 04:33:56;;;;;;;;;;;;;;;17.31;48.04;100373.34;5043074;28;1551;-56
2023/05/18 04:36:24;;;;;;;;;;;;;;;16.82;47.76;100379.72;5040584;28;1283;-56
2023/05/18 04:38:51;;;;;;;;;;;;;;;16.60;47.45;100373.53;5038005;28;1991;-55
2023/05/18 04:41:19;;;;;;;;;;;;;;;16.48;46.96;100384.03;5051781;28;1254;-57
2023/05/18 04:43:46;;;;;;;;;;;;;;;16.50;46.21;100379.06;5058434;28;1476;-57
2023/05/18 04:46:12;;;;;;;;;;;;;;;16.90;47.07;100384.63;5058028;28;1235;-55
2023/05/18 04:48:38;;;;;;;;;;;;;;;17.00;48.06;100387.31;5063512;28;1117;-53
2023/05/18 04:51:04;;;;;;;;;;;;;;;16.62;47.61;100376.00;5058147;28;1291;-55
2023/05/18 04:53:32;;;;;;;;;;;;;;;16.41;47.00;100383.50;5041992;28;1186;-52
2023/05/18 04:55:59;;;;;;;;;;;;;;;17.16;47.63;100377.03;5055572;28;1287;-56
2023/05/18 04:58:26;;;;;;;;;;;;;;;17.01;48.44;100375.22;5062090;28;1910;-57
2023/05/18 05:00:52;;;;;;;;;;;;;;;17.65;47.60;100380.69;5051911;28;1607;-57
2023/05/18 05:03:17;;;;;;;;;;;;;;;17.48;47.72;100383.09;5067120;28;1145;-56
2023/05/18 05:05:43;;;;;;;;;;;;;;;17.10;49.18;100389.97;5076137;28;1091;-54
2023/05/18 05:08:08;;;;;;;;;;;;;;;16.87;49.72;100386.00;5066597;28;1086;-56
2023/05/18 05:10:34;;;;;;;;;;;;;;;16.75;50.05;100386.34;5067001;28;1148;-55
2023/05/18 05:12:59;;;;;;;;;;;;;;;16.65;50.51;100394.66;5053203;28;1210;-53
2023/05/18 05:15:25;;;;;;;;;;;;;;;16.48;50.73;100386.78;5048252;28;1126;-56
2023/05/18 05:17:51;;;;;;;;;;;;;;;16.38;51.06;100389.56;5057866;28;1945;-53
2023/05/18 05:20:16;;;;;;;;;;;;;;;16.28;51.55;100395.91;5053012;28;1310;-56
2023/05/18 05:22:42;;;;;;;;;;;;;;;16.21;51.67;100389.91;5084919;28;1309;-54
2023/05/18 05:25:10;;;;;;;;;;;;;;;16.11;51.88;100389.97;5039781;28;1229;-54
2023/05/18 05:27:36;;;;;;;;;;;;;;;16.05;51.85;100389.16;5047123;28;1995;-55
2023/05/18 05:30:02;;;;;;;;;;;;;;;15.98;52.06;100396.88;5051067;28;1393;-55
2023/05/18 05:32:29;;;;;;;;;;;;;;;17.30;49.12;100390.91;5045671;28;1180;-55
2023/05/18 05:34:55;;;;;;;;;;;;;;;16.89;50.33;100389.31;5046513;28;1195;-54
2023/05/18 05:37:20;;;;;;;;;;;;;;;16.48;51.29;100392.28;5041338;28;1972;-53
2023/05/18 05:39:47;;;;;;;;;;;;;;;16.26;51.73;100392.66;5039984;28;1373;-55
2023/05/18 05:42:15;;;;;;;;;;;;;;;16.17;52.01;100380.59;5046826;28;1237;-55
2023/05/18 05:44:41;;;;;;;;;;;;;;;16.05;52.54;100392.72;5037185;28;1250;-50
2023/05/18 05:47:07;;;;;;;;;;;;;;;15.96;52.72;100394.38;5037487;28;1505;-54
2023/05/18 05:49:33;;;;;;;;;;;;;;;17.36;49.62;100402.69;5038793;28;1310;-52
2023/05/18 05:51:59;;;;;;;;;;;;;;;16.98;50.34;100402.44;5058742;28;1238;-54
2023/05/18 05:54:24;;;;;;;;;;;;;;;16.51;51.59;100401.84;5040868;28;1293;-55
2023/05/18 05:56:50;;;;;;;;;;;;;;;16.24;52.24;100405.81;5052323;28;1235;-53
2023/05/18 05:59:17;;;;;;;;;;;;;;;16.15;52.43;100402.00;5053411;28;1909;-54
2023/05/18 06:01:43;;;;;;;;;;;;;;;16.07;52.78;100406.97;5057250;28;1329;-56
2023/05/18 06:04:11;;;;;;;;;;;;;;;16.30;52.42;100418.41;5060704;28;1496;-56
2023/05/18 06:06:38;;;;;;;;;;;;;;;17.40;49.45;100421.09;5054752;28;1236;-57
2023/05/18 06:09:04;;;;;;;;;;;;;;;16.62;51.68;100422.69;5054800;28;1384;-58
2023/05/18 06:11:30;;;;;;;;;;;;;;;16.40;52.52;100417.56;5075316;28;1374;-57
2023/05/18 06:13:56;;;;;;;;;;;;;;;16.21;52.82;100417.34;5059083;28;1036;-57
2023/05/18 06:16:21;;;;;;;;;;;;;;;16.09;53.06;100406.69;5040814;28;1250;-56
2023/05/18 06:18:47;;;;;;;;;;;;;;;16.99;51.12;100407.63;5059152;28;1984;-57
2023/05/18 06:21:14;;;;;;;;;;;;;;;17.30;50.29;100407.41;5041083;28;1365;-58
2023/05/18 06:23:39;;;;;;;;;;;;;;;16.63;52.00;100399.59;5067665;28;932;-58
2023/05/18 06:26:17;;;;;;;;;;;;;;;16.41;52.53;100399.97;5041002;28;1218;-58
2023/05/18 06:28:51;;;;;;;;;;;;;;;16.23;53.13;100393.22;5040863;28;1313;-58
2023/05/18 06:31:46;;;;;;;;;;;;;;;16.10;53.28;100378.16;5042642;28;1238;-59
2023/05/18 06:34:33;;;;;;;;;;;;;;;17.17;50.91;100384.16;5060404;28;1167;-61
2023/05/18 06:36:59;;;;;;;;;;;;;;;17.01;51.44;100380.72;5061349;28;1140;-58
2023/05/18 06:39:25;;;;;;;;;;;;;;;16.52;52.75;100389.78;5078025;28;1980;-58
2023/05/18 06:41:51;;;;;;;;;;;;;;;16.37;52.96;100416.19;5049488;28;1105;-59
2023/05/18 06:44:25;;;;;;;;;;;;;;;16.15;53.66;100421.22;5040849;28;1297;-58
2023/05/18 06:47:14;;;;;;;;;;;;;;;16.26;53.50;100417.34;5048361;28;1426;-62
2023/05/18 06:49:41;;;;;;;;;;;;;;;17.60;50.41;100409.06;5060897;28;1083;-63
2023/05/18 06:52:10;;;;;;;;;;;;;;;16.79;52.25;100407.72;5060879;28;1229;-58
2023/05/18 06:54:37;;;;;;;;;;;;;;;16.46;52.91;100418.34;5078069;28;1118;-60
2023/05/18 06:57:03;;;;;;;;;;;;;;;16.30;53.51;100418.41;5060531;28;1190;-57
2023/05/18 06:59:29;;;;;;;;;;;;;;;16.17;53.64;100419.00;5069280;28;1126;-60
2023/05/18 07:01:55;;;;;;;;;;;;;;;16.07;53.92;100423.44;5065134;28;2112;-57
2023/05/18 07:04:22;;;;;;;;;;;;;;;15.99;53.70;100426.75;5068709;28;1038;-64
2023/05/18 07:06:47;;;;;;;;;;;;;;;16.82;52.65;100448.38;5078246;28;1054;-60
2023/05/18 07:09:13;;;;;;;;;;;;;;;17.28;51.18;100437.94;5060479;28;1134;-59
2023/05/18 07:11:39;;;;;;;;;;;;;;;16.59;53.20;100445.19;5084290;28;1157;-59
2023/05/18 07:14:04;;;;;;;;;;;;;;;16.36;53.84;100450.22;5063202;28;1304;-59
2023/05/18 07:16:30;;;;;;;;;;;;;;;16.19;54.07;100450.53;5066607;28;1229;-59
2023/05/18 07:18:56;;;;;;;;;;;;;;;16.12;53.87;100457.41;5079495;28;1905;-59
2023/05/18 07:21:22;;;;;;;;;;;;;;;15.99;54.41;100473.38;5089656;28;1062;-57
2023/05/18 07:23:47;;;;;;;;;;;;;;;15.92;54.33;100472.81;5084300;28;1082;-58
2023/05/18 07:26:13;;;;;;;;;;;;;;;17.19;52.09;100480.03;5066095;28;1099;-57
2023/05/18 07:28:38;;;;;;;;;;;;;;;16.90;52.67;100472.50;5077775;28;1058;-58
2023/05/18 07:31:04;;;;;;;;;;;;;;;16.47;53.96;100485.88;5077979;28;1047;-56
2023/05/18 07:33:30;;;;;;;;;;;;;;;16.24;54.32;100482.63;5077948;28;1070;-59
2023/05/18 07:35:55;;;;;;;;;;;;;;;17.51;51.45;100492.47;5079896;28;839;-59
2023/05/18 07:38:21;;;;;;;;;;;;;;;17.04;52.49;100487.28;5077768;28;1909;-59
2023/05/18 07:40:46;;;;;;;;;;;;;;;16.57;53.55;100485.81;5077528;28;1034;-59
2023/05/18 07:43:12;;;;;;;;;;;;;;;16.37;53.96;100484.78;5077550;28;1166;-59
2023/05/18 07:45:37;;;;;;;;;;;;;;;16.19;54.21;100491.69;5077019;28;1157;-59
2023/05/18 07:48:03;;;;;;;;;;;;;;;16.17;54.32;100495.81;5072455;28;1050;-60
2023/05/18 07:50:28;;;;;;;;;;;;;;;17.56;51.75;100485.00;5076118;28;1023;-57
2023/05/18 07:52:54;;;;;;;;;;;;;;;16.91;53.14;100485.13;5062759;28;1130;-57
2023/05/18 07:55:20;;;;;;;;;;;;;;;16.53;54.04;100469.09;5077075;28;1078;-61
2023/05/18 07:57:46;;;;;;;;;;;;;;;16.33;54.28;100463.69;5077212;28;1955;-62
2023/05/18 08:00:11;;;;;;;;;;;;;;;16.20;54.68;100495.25;5083837;28;1118;-58
2023/05/18 08:02:40;;;;;;;;;;;;;;;16.08;54.55;100490.88;5076966;28;1174;-59
2023/05/18 08:05:05;;;;;;;;;;;;;;;16.93;53.44;100499.44;5077241;28;1146;-60
2023/05/18 08:07:31;;;;;;;;;;;;;;;17.09;52.73;100498.22;5060476;28;1261;-60
2023/05/18 08:09:57;;;;;;;;;;;;;;;16.51;54.19;100493.25;5057168;28;1039;-61
2023/05/18 08:12:23;;;;;;;;;;;;;;;16.23;54.72;100478.25;5081822;28;1254;-60
2023/05/18 08:14:49;;;;;;;;;;;;;;;16.15;54.64;100484.31;5074043;28;1290;-59
2023/05/18 08:17:14;;;;;;;;;;;;;;;16.05;54.87;100502.41;5067127;28;1902;-60
2023/05/18 08:19:40;;;;;;;;;;;;;;;17.12;53.02;100496.03;5072107;28;1145;-58
2023/05/18 08:22:05;;;;;;;;;;;;;;;17.28;52.28;100501.13;5052542;28;924;-58
2023/05/18 08:24:32;;;;;;;;;;;;;;;16.67;54.06;100507.72;5086923;28;1038;-60
2023/05/18 08:26:58;;;;;;;;;;;;;;;16.39;54.40;100495.50;5077029;28;1015;-59
2023/05/18 08:29:23;;;;;;;;;;;;;;;16.19;54.78;100497.19;5076594;28;1194;-58
2023/05/18 08:31:49;;;;;;;;;;;;;;;16.14;54.83;100504.59;5076789;28;1061;-60
2023/05/18 08:34:15;;;;;;;;;;;;;;;15.99;55.01;100514.50;5076948;28;1239;-60
2023/05/18 08:36:43;;;;;;;;;;;;;;;16.43;54.35;100515.78;5079888;28;861;-57
2023/05/18 08:39:09;;;;;;;;;;;;;;;17.47;52.05;100518.88;5076153;28;1906;-60
2023/05/18 08:41:36;;;;;;;;;;;;;;;16.66;54.26;100516.25;5076082;28;1011;-60
2023/05/18 08:44:03;;;;;;;;;;;;;;;16.38;54.56;100516.63;5052070;28;1117;-62
2023/05/18 08:46:38;;;;;;;;;;;;;;;16.32;55.06;100525.94;5027302;28;1415;-61
2023/05/18 08:49:04;;;;;;;;;;;;;;;17.64;51.66;100524.78;5023369;28;1386;-63
2023/05/18 08:51:32;;;;;;;;;;;;;;;16.83;53.59;100533.22;5019302;28;975;-62
2023/05/18 08:53:58;;;;;;;;;;;;;;;16.51;54.26;100537.16;5030890;28;1222;-61
2023/05/18 08:56:23;;;;;;;;;;;;;;;16.31;54.87;100543.50;5033975;28;1128;-61
2023/05/18 08:58:49;;;;;;;;;;;;;;;16.18;54.85;100513.94;5029301;28;1910;-62
2023/05/18 09:01:16;;;;;;;;;;;;;;;16.88;53.97;100499.41;5017376;28;1323;-62
2023/05/18 09:03:42;;;;;;;;;;;;;;;17.20;52.87;100493.47;5032068;28;1079;-60
2023/05/18 09:06:09;;;;;;;;;;;;;;;16.59;54.54;100511.91;5036467;28;1051;-63
2023/05/18 09:08:34;;;;;;;;;;;;;;;16.39;54.66;100515.50;5036112;28;1078;-63
2023/05/18 09:11:00;;;;;;;;;;;;;;;16.30;54.86;100508.97;5036130;28;1118;-57
2023/05/18 09:13:26;;;;;;;;;;;;;;;16.17;54.72;100504.03;5025063;28;1016;-61
2023/05/18 09:15:51;;;;;;;;;;;;;;;17.02;53.58;100505.94;5023492;28;1102;-60
2023/05/18 09:18:17;;;;;;;;;;;;;;;17.22;52.80;100506.94;5036040;28;1984;-60
2023/05/18 09:20:42;;;;;;;;;;;;;;;16.62;54.49;100507.78;5036292;28;1109;-59
2023/05/18 09:23:10;;;;;;;;;;;;;;;16.43;54.56;100522.09;5035712;28;1123;-60
2023/05/18 09:25:36;;;;;;;;;;;;;;;16.24;54.92;100510.91;5029552;28;1294;-58
2023/05/18 09:28:03;;;;;;;;;;;;;;;16.20;55.01;100509.81;5027443;28;1124;-60
2023/05/18 09:30:28;;;;;;;;;;;;;;;17.64;52.06;100511.03;5020330;28;1218;-58
2023/05/18 09:32:54;;;;;;;;;;;;;;;16.90;53.85;100510.94;5025055;28;1290;-57
2023/05/18 09:35:20;;;;;;;;;;;;;;;16.54;54.55;100524.81;5025714;28;1143;-62
2023/05/18 09:37:46;;;;;;;;;;;;;;;16.39;54.88;100520.19;5037938;28;1989;-61
2023/05/18 09:40:11;;;;;;;;;;;;;;;16.24;54.85;100521.03;5030880;28;1465;-64
2023/05/18 09:42:37;;;;;;;;;;;;;;;16.11;54.81;100511.47;5021854;28;1208;-58
2023/05/18 09:45:04;;;;;;;;;;;;;;;16.41;54.85;100510.56;5023634;28;1194;-61
2023/05/18 09:47:30;;;;;;;;;;;;;;;17.65;52.25;100498.94;5021852;28;1013;-59
2023/05/18 09:49:56;;;;;;;;;;;;;;;16.81;54.30;100504.41;5030375;28;1080;-60
2023/05/18 09:52:22;;;;;;;;;;;;;;;16.48;54.87;100506.69;5037475;28;1014;-59
2023/05/18 09:54:51;;;;;;;;;;;;;;;16.23;55.14;100505.69;5039732;28;1030;-57
2023/05/18 09:57:19;;;;;;;;;;;;;;;16.13;55.04;100514.75;5039646;28;1979;-58
2023/05/18 09:59:44;;;;;;;;;;;;;;;17.30;53.18;100513.78;5033419;28;1127;-62
2023/05/18 10:02:12;;;;;;;;;;;;;;;17.20;53.52;100517.41;5030186;28;1541;-61
2023/05/18 10:04:38;;;;;;;;;;;;;;;16.69;54.63;100505.53;5033471;28;972;-61
2023/05/18 10:07:11;;;;;;;;;;;;;;;16.45;55.04;100497.09;5036205;28;1054;-60
2023/05/18 10:09:37;;;;;;;;;;;;;;;16.30;55.09;100502.63;5019460;28;1313;-59
2023/05/18 10:12:08;;;;;;;;;;;;;;;16.15;54.98;100506.25;5039191;28;1155;-59
2023/05/18 10:14:35;;;;;;;;;;;;;;;16.05;55.35;100491.44;5028319;28;1349;-60
2023/05/18 10:17:02;;;;;;;;;;;;;;;16.29;55.16;100490.03;5025136;28;1231;-60
2023/05/18 10:19:28;;;;;;;;;;;;;;;17.56;52.73;100514.41;5038979;28;1906;-59
2023/05/18 10:21:53;;;;;;;;;;;;;;;16.72;54.62;100504.97;5037706;28;1163;-61
2023/05/18 10:24:19;;;;;;;;;;;;;;;16.47;55.08;100499.59;5035794;28;1062;-60
2023/05/18 10:26:44;;;;;;;;;;;;;;;16.24;55.52;100499.09;5033944;28;991;-60
2023/05/18 10:29:10;;;;;;;;;;;;;;;16.93;54.60;100500.25;5037245;28;1087;-57
2023/05/18 10:31:36;;;;;;;;;;;;;;;17.35;53.31;100494.47;5038658;28;1010;-55
2023/05/18 10:34:01;;;;;;;;;;;;;;;16.67;55.06;100491.25;5038205;28;1055;-58
2023/05/18 10:36:28;;;;;;;;;;;;;;;16.42;55.42;100486.69;5040667;28;1142;-60
2023/05/18 10:38:55;;;;;;;;;;;;;;;16.40;55.33;100481.47;5029216;28;1985;-61
2023/05/18 10:41:21;;;;;;;;;;;;;;;16.22;55.45;100482.09;5047177;28;1043;-59
2023/05/18 10:43:47;;;;;;;;;;;;;;;16.47;55.38;100485.88;5042556;28;1110;-62
2023/05/18 10:46:12;;;;;;;;;;;;;;;17.48;53.31;100484.78;5034765;28;1272;-60
2023/05/18 10:48:41;;;;;;;;;;;;;;;16.71;55.15;100484.09;5037066;28;1179;-55
2023/05/18 10:51:07;;;;;;;;;;;;;;;16.41;55.86;100480.38;5032611;28;984;-58
2023/05/18 10:53:32;;;;;;;;;;;;;;;16.23;55.93;100478.25;5038546;28;1035;-59
2023/05/18 10:55:58;;;;;;;;;;;;;;;16.23;55.61;100479.06;5038404;28;1097;-57
2023/05/18 10:58:26;;;;;;;;;;;;;;;16.07;55.55;100478.28;5038233;28;1977;-57
2023/05/18 11:01:02;;;;;;;;;;;;;;;16.18;55.70;100476.31;5026304;28;1391;-58
2023/05/18 11:03:27;;;;;;;;;;;;;;;17.60;53.65;100479.75;5027358;28;1353;-58
2023/05/18 11:06:07;;;;;;;;;;;;;;;16.89;55.21;100482.69;5021014;28;1414;-57
2023/05/18 11:08:32;;;;;;;;;;;;;;;16.49;55.85;100472.69;5022077;28;1084;-58
2023/05/18 11:11:06;;;;;;;;;;;;;;;16.31;55.97;100466.69;5022357;28;1257;-58
2023/05/18 11:13:32;;;;;;;;;;;;;;;16.21;55.74;100477.69;5030001;28;1329;-56
2023/05/18 11:15:58;;;;;;;;;;;;;;;16.12;55.72;100479.34;5023043;28;1269;-58
2023/05/18 11:18:38;;;;;;;;;;;;;;;16.92;55.27;100470.31;5036020;28;1914;-60
2023/05/18 11:21:18;;;;;;;;;;;;;;;17.23;54.32;100470.13;5029686;28;1217;-60
2023/05/18 11:23:54;;;;;;;;;;;;;;;16.65;55.49;100477.00;5035622;28;1114;-58
2023/05/18 11:26:19;;;;;;;;;;;;;;;16.42;55.63;100468.31;5022116;28;1425;-59
2023/05/18 11:28:46;;;;;;;;;;;;;;;16.26;56.01;100474.94;5031424;28;1334;-60
2023/05/18 11:31:15;;;;;;;;;;;;;;;16.15;55.83;100473.34;5043769;28;1066;-58
2023/05/18 11:33:41;;;;;;;;;;;;;;;16.07;55.68;100472.81;5040110;28;1148;-59
2023/05/18 11:36:14;;;;;;;;;;;;;;;16.03;55.52;100481.84;5032942;28;1251;-59
2023/05/18 11:38:46;;;;;;;;;;;;;;;16.25;56.09;100470.56;5037076;28;1902;-59
2023/05/18 11:41:28;;;;;;;;;;;;;;;17.51;54.24;100478.72;5041327;28;1011;-59
2023/05/18 11:44:13;;;;;;;;;;;;;;;16.68;55.79;100476.44;5044639;28;1050;-59
2023/05/18 11:46:52;;;;;;;;;;;;;;;16.34;56.22;100473.53;5057894;28;1289;-60
2023/05/18 11:49:18;;;;;;;;;;;;;;;16.21;55.94;100477.69;5075626;28;1054;-59
2023/05/18 11:52:13;;;;;;;;;;;;;;;16.11;55.73;100483.22;5068794;28;1260;-60
2023/05/18 11:54:44;;;;;;;;;;;;;;;16.30;56.14;100480.69;5048655;28;1471;-60
2023/05/18 11:57:09;;;;;;;;;;;;;;;17.68;54.14;100481.84;5096918;28;1169;-59
2023/05/18 11:59:36;;;;;;;;;;;;;;;16.94;55.40;100479.06;5079354;28;1984;-59
2023/05/18 12:02:02;;;;;;;;;;;;;;;16.62;55.77;100474.84;5096055;28;1100;-60
2023/05/18 12:04:28;;;;;;;;;;;;;;;16.43;55.73;100469.94;5083048;28;1053;-58
2023/05/18 12:06:55;;;;;;;;;;;;;;;16.24;56.00;100471.66;5059365;28;1064;-59
2023/05/18 12:09:20;;;;;;;;;;;;;;;16.16;55.77;100470.31;5065954;28;1366;-58
2023/05/18 12:11:46;;;;;;;;;;;;;;;16.13;55.81;100479.09;5076141;28;1202;-60
2023/05/18 12:14:11;;;;;;;;;;;;;;;17.47;54.78;100480.41;5076670;28;1130;-59
2023/05/18 12:16:38;;;;;;;;;;;;;;;17.11;55.07;100475.97;5058917;28;1082;-56
2023/05/18 12:19:03;;;;;;;;;;;;;;;16.64;56.13;100478.09;5058254;28;1914;-58
2023/05/18 12:21:29;;;;;;;;;;;;;;;16.42;56.10;100472.97;5077022;28;1004;-59
2023/05/18 12:23:58;;;;;;;;;;;;;;;16.32;56.14;100468.34;5077102;28;1014;-59
2023/05/18 12:26:24;;;;;;;;;;;;;;;16.21;55.81;100477.69;5064194;28;1518;-57
2023/05/18 12:28:54;;;;;;;;;;;;;;;16.10;55.77;100474.16;5076752;28;1158;-59
2023/05/18 12:31:20;;;;;;;;;;;;;;;17.10;55.47;100477.88;5076705;28;1138;-61
2023/05/18 12:33:45;;;;;;;;;;;;;;;17.09;55.23;100476.25;5075867;28;1068;-58
2023/05/18 12:36:14;;;;;;;;;;;;;;;16.63;56.07;100476.44;5040699;28;1658;-57
2023/05/18 12:38:40;;;;;;;;;;;;;;;16.41;56.21;100474.06;5080420;28;1984;-57
2023/05/18 12:41:06;;;;;;;;;;;;;;;16.31;56.03;100469.44;5064057;28;1541;-58
2023/05/18 12:43:34;;;;;;;;;;;;;;;16.17;56.06;100479.34;5064159;28;1307;-60
2023/05/18 12:46:00;;;;;;;;;;;;;;;16.07;56.01;100480.19;5065435;28;1327;-61
2023/05/18 12:48:26;;;;;;;;;;;;;;;17.12;55.64;100479.53;5061668;28;1067;-58